createdAt,value
2024-02-10T00:00:21.074Z,92959.30
2024-02-10T00:03:11.363Z,92953.58
2024-02-10T00:05:40.676Z,92947.00
2024-02-10T00:08:08.634Z,92942.17
2024-02-10T00:10:36.467Z,92939.79
2024-02-10T00:13:04.735Z,92933.48
2024-02-10T00:15:32.464Z,92932.36
2024-02-10T00:18:00.349Z,92927.80
2024-02-10T00:20:29.765Z,92926.39
2024-02-10T00:22:57.990Z,92931.19
2024-02-10T00:25:26.150Z,92930.92
2024-02-10T00:27:55.407Z,92933.27
2024-02-10T00:30:24.732Z,92933.17
2024-02-10T00:32:53.558Z,92930.23
2024-02-10T00:35:23.399Z,92929.30
2024-02-10T00:37:51.848Z,92929.41
2024-02-10T00:40:19.804Z,92931.63
2024-02-10T00:42:47.704Z,92927.09
2024-02-10T00:45:15.825Z,92928.04
2024-02-10T00:47:46.220Z,92927.07
2024-02-10T00:50:17.013Z,92926.66
2024-02-10T00:52:49.639Z,92931.30
2024-02-10T00:55:18.552Z,92938.93
2024-02-10T00:57:48.044Z,92941.48
2024-02-10T01:00:19.603Z,92942.87
2024-02-10T01:02:47.620Z,92946.92
2024-02-10T01:05:16.018Z,92952.49
2024-02-10T01:07:47.396Z,92952.39
2024-02-10T01:10:15.794Z,92952.64
2024-02-10T01:12:43.712Z,92957.77
2024-02-10T01:15:11.482Z,92955.47
2024-02-10T01:17:39.268Z,92956.52
2024-02-10T01:20:08.464Z,92958.12
2024-02-10T01:22:36.365Z,92958.32
2024-02-10T01:25:05.727Z,92957.23
2024-02-10T01:27:33.478Z,92952.90
2024-02-10T01:30:04.610Z,92953.55
2024-02-10T01:32:33.979Z,92952.99
2024-02-10T01:35:05.152Z,92952.23
2024-02-10T01:37:33.113Z,92950.14
2024-02-10T01:40:02.604Z,92944.97
2024-02-10T01:42:40.600Z,92929.66
2024-02-10T01:45:13.565Z,92925.48
2024-02-10T01:47:45.993Z,92929.31
2024-02-10T01:50:15.052Z,92935.65
2024-02-10T01:52:44.513Z,92942.11
2024-02-10T01:55:12.594Z,92946.77
2024-02-10T01:57:40.885Z,92951.36
2024-02-10T02:00:15.284Z,92964.82
2024-02-10T02:02:43.440Z,92965.95
2024-02-10T02:05:11.328Z,92964.61
2024-02-10T02:07:40.306Z,92964.21
2024-02-10T02:10:10.322Z,92968.02
2024-02-10T02:12:49.552Z,92967.11
2024-02-10T02:15:19.018Z,92967.27
2024-02-10T02:17:50.910Z,92966.66
2024-02-10T02:20:19.230Z,92970.33
2024-02-10T02:22:53.599Z,92972.98
2024-02-10T02:25:22.779Z,92971.35
2024-02-10T02:27:50.677Z,92967.29
2024-02-10T02:30:19.051Z,92964.87
2024-02-10T02:32:49.168Z,92970.02
2024-02-10T02:35:17.064Z,92970.25
2024-02-10T02:37:44.976Z,92968.42
2024-02-10T02:40:16.195Z,92963.40
2024-02-10T02:42:44.051Z,92971.67
2024-02-10T02:45:12.287Z,92974.95
2024-02-10T02:47:40.359Z,92974.40
2024-02-10T02:50:16.280Z,92968.36
2024-02-10T02:52:45.634Z,92965.84
2024-02-10T02:55:13.834Z,92960.89
2024-02-10T02:57:41.797Z,92959.61
2024-02-10T03:00:10.128Z,92959.20
2024-02-10T03:02:43.556Z,92959.73
2024-02-10T03:05:12.660Z,92955.02
2024-02-10T03:07:45.450Z,92949.08
2024-02-10T03:10:14.320Z,92944.45
2024-02-10T03:12:43.030Z,92940.14
2024-02-10T03:15:11.352Z,92940.98
2024-02-10T03:17:39.728Z,92937.13
2024-02-10T03:20:08.120Z,92932.66
2024-02-10T03:22:37.586Z,92928.37
2024-02-10T03:25:06.224Z,92930.23
2024-02-10T03:27:34.123Z,92926.26
2024-02-10T03:30:02.046Z,92930.02
2024-02-10T03:32:34.093Z,92930.64
2024-02-10T03:35:02.408Z,92927.52
2024-02-10T03:37:30.571Z,92928.27
2024-02-10T03:39:58.609Z,92932.89
2024-02-10T03:42:26.574Z,92935.85
2024-02-10T03:44:56.256Z,92938.41
2024-02-10T03:47:27.134Z,92936.50
2024-02-10T03:49:55.083Z,92940.38
2024-02-10T03:52:26.902Z,92942.34
2024-02-10T03:54:54.965Z,92943.80
2024-02-10T03:57:22.945Z,92940.08
2024-02-10T03:59:51.302Z,92936.88
2024-02-10T04:02:20.007Z,92940.64
2024-02-10T04:04:48.120Z,92933.67
2024-02-10T04:07:17.759Z,92931.23
2024-02-10T04:09:48.047Z,92923.73
2024-02-10T04:12:15.868Z,92926.66
2024-02-10T04:14:43.707Z,92923.41
2024-02-10T04:17:12.512Z,92924.98
2024-02-10T04:19:40.450Z,92923.67
2024-02-10T04:22:10.384Z,92926.39
2024-02-10T04:24:38.319Z,92929.13
2024-02-10T04:27:07.555Z,92926.66
2024-02-10T04:29:37.285Z,92926.45
2024-02-10T04:32:05.621Z,92926.40
2024-02-10T04:34:33.390Z,92926.17
2024-02-10T04:37:01.180Z,92926.68
2024-02-10T04:39:28.949Z,92926.14
2024-02-10T04:41:56.652Z,92928.75
2024-02-10T04:44:24.543Z,92931.00
2024-02-10T04:46:53.069Z,92924.74
2024-02-10T04:49:21.201Z,92922.94
2024-02-10T04:51:49.072Z,92919.46
2024-02-10T04:54:16.710Z,92919.23
2024-02-10T04:56:44.594Z,92923.23
2024-02-10T04:59:19.680Z,92916.89
2024-02-10T05:01:47.302Z,92915.21
2024-02-10T05:04:15.774Z,92917.68
2024-02-10T05:06:44.036Z,92917.78
2024-02-10T05:09:15.184Z,92918.65
2024-02-10T05:11:43.047Z,92915.58
2024-02-10T05:14:12.068Z,92914.38
2024-02-10T05:16:40.171Z,92916.23
2024-02-10T05:19:08.092Z,92912.16
2024-02-10T05:21:38.669Z,92911.89
2024-02-10T05:24:14.075Z,92911.11
2024-02-10T05:26:43.952Z,92907.38
2024-02-10T05:29:12.681Z,92912.25
2024-02-10T05:31:41.474Z,92913.96
2024-02-10T05:34:17.061Z,92912.58
2024-02-10T05:36:44.937Z,92913.09
2024-02-10T05:39:17.894Z,92920.35
2024-02-10T05:41:49.559Z,92921.16
2024-02-10T05:44:17.428Z,92923.02
2024-02-10T05:46:46.034Z,92926.23
2024-02-10T05:49:13.880Z,92929.81
2024-02-10T05:51:41.566Z,92930.55
2024-02-10T05:54:09.315Z,92933.94
2024-02-10T05:56:37.048Z,92937.72
2024-02-10T05:59:07.978Z,92935.37
2024-02-10T06:01:37.392Z,92939.13
2024-02-10T06:04:11.377Z,92940.39
2024-02-10T06:06:42.130Z,92943.61
2024-02-10T06:09:10.090Z,92945.52
2024-02-10T06:11:37.750Z,92946.05
2024-02-10T06:14:08.950Z,92946.55
2024-02-10T06:16:41.966Z,92949.23
2024-02-10T06:19:09.930Z,92946.53
2024-02-10T06:21:37.701Z,92946.38
2024-02-10T06:24:05.640Z,92948.36
2024-02-10T06:26:38.613Z,92946.17
2024-02-10T06:29:09.328Z,92954.13
2024-02-10T06:31:37.162Z,92957.86
2024-02-10T06:34:05.620Z,92960.44
2024-02-10T06:36:33.444Z,92964.55
2024-02-10T06:39:01.796Z,92963.34
2024-02-10T06:41:29.633Z,92963.84
2024-02-10T06:43:57.474Z,92963.36
2024-02-10T06:46:25.275Z,92970.44
2024-02-10T06:48:53.022Z,92975.96
2024-02-10T06:51:23.099Z,92979.98
2024-02-10T06:53:52.255Z,92978.63
2024-02-10T06:56:22.198Z,92981.04
2024-02-10T06:58:50.445Z,92983.48
2024-02-10T07:01:18.757Z,92988.31
2024-02-10T07:03:47.535Z,92989.86
2024-02-10T07:06:19.112Z,92989.62
2024-02-10T07:08:47.063Z,92990.13
2024-02-10T07:11:14.740Z,92995.20
2024-02-10T07:13:42.672Z,92995.40
2024-02-10T07:16:10.556Z,93002.13
2024-02-10T07:18:43.010Z,93006.01
2024-02-10T07:21:10.994Z,93001.70
2024-02-10T07:23:41.110Z,93002.80
2024-02-10T07:26:09.167Z,93005.88
2024-02-10T07:28:36.864Z,93006.66
2024-02-10T07:31:04.777Z,93004.04
2024-02-10T07:33:32.734Z,93007.14
2024-02-10T07:36:01.527Z,93008.97
2024-02-10T07:38:29.295Z,93005.91
2024-02-10T07:40:57.236Z,93001.41
2024-02-10T07:43:25.289Z,92995.58
2024-02-10T07:45:53.875Z,92992.82
2024-02-10T07:48:22.481Z,92989.46
2024-02-10T07:50:50.805Z,92984.16
2024-02-10T07:53:18.553Z,92983.81
2024-02-10T07:55:48.437Z,92985.16
2024-02-10T07:58:17.309Z,92988.56
2024-02-10T08:00:45.911Z,92989.73
2024-02-10T08:03:13.904Z,92994.73
2024-02-10T08:05:43.648Z,92994.70
2024-02-10T08:08:12.132Z,92994.65
2024-02-10T08:10:40.434Z,92998.42
2024-02-10T08:13:10.193Z,92994.85
2024-02-10T08:15:38.276Z,92991.90
2024-02-10T08:18:10.698Z,92987.77
2024-02-10T08:20:41.756Z,92987.27
2024-02-10T08:23:14.212Z,92990.11
2024-02-10T08:25:45.162Z,92994.29
2024-02-10T08:28:12.934Z,92995.29
2024-02-10T08:30:40.859Z,92999.39
2024-02-10T08:33:08.762Z,92998.00
2024-02-10T08:35:37.766Z,93001.18
2024-02-10T08:38:05.746Z,93002.22
2024-02-10T08:40:33.686Z,92998.26
2024-02-10T08:43:01.547Z,93001.95
2024-02-10T08:45:29.603Z,93005.02
2024-02-10T08:47:57.443Z,93005.86
2024-02-10T08:50:25.155Z,93007.02
2024-02-10T08:52:53.144Z,93004.59
2024-02-10T08:55:23.954Z,93004.55
2024-02-10T08:57:51.936Z,93007.55
2024-02-10T09:00:20.999Z,93007.70
2024-02-10T09:02:52.288Z,93008.81
2024-02-10T09:05:20.521Z,93014.31
2024-02-10T09:07:48.326Z,93016.91
2024-02-10T09:10:16.212Z,93017.38
2024-02-10T09:12:45.923Z,93014.53
2024-02-10T09:15:13.641Z,93019.88
2024-02-10T09:17:41.518Z,93017.88
2024-02-10T09:20:10.079Z,93013.17
2024-02-10T09:22:38.019Z,93018.53
2024-02-10T09:25:06.514Z,93021.85
2024-02-10T09:27:35.076Z,93021.30
2024-02-10T09:30:04.499Z,93027.98
2024-02-10T09:32:32.352Z,93027.54
2024-02-10T09:35:05.520Z,93021.69
2024-02-10T09:37:33.330Z,93023.96
2024-02-10T09:40:01.279Z,93022.77
2024-02-10T09:42:31.750Z,93024.58
2024-02-10T09:44:59.735Z,93032.64
2024-02-10T09:47:27.518Z,93033.33
2024-02-10T09:50:05.329Z,93037.70
2024-02-10T09:52:36.600Z,93035.69
2024-02-10T09:55:08.477Z,93031.95
2024-02-10T09:57:38.639Z,93033.30
2024-02-10T10:00:06.965Z,93031.44
2024-02-10T10:02:35.413Z,93032.34
2024-02-10T10:05:03.623Z,93034.55
2024-02-10T10:07:32.835Z,93037.52
2024-02-10T10:10:00.569Z,93037.13
2024-02-10T10:12:28.343Z,93041.48
2024-02-10T10:14:56.048Z,93041.98
2024-02-10T10:17:34.582Z,93047.81
2024-02-10T10:20:11.836Z,93050.38
2024-02-10T10:22:40.219Z,93047.27
2024-02-10T10:25:10.304Z,93052.08
2024-02-10T10:27:39.956Z,93043.48
2024-02-10T10:30:13.308Z,93032.58
2024-02-10T10:32:43.715Z,93026.42
2024-02-10T10:35:12.834Z,93023.39
2024-02-10T10:37:40.742Z,93020.73
2024-02-10T10:40:11.859Z,93011.23
2024-02-10T10:42:42.561Z,93014.48
2024-02-10T10:45:10.930Z,93012.36
2024-02-10T10:47:42.404Z,93010.30
2024-02-10T10:50:10.995Z,93007.80
2024-02-10T10:52:43.502Z,93001.05
2024-02-10T10:55:17.027Z,92995.59
2024-02-10T10:57:51.357Z,92996.77
2024-02-10T11:00:22.375Z,92991.95
2024-02-10T11:02:54.344Z,92984.85
2024-02-10T11:05:25.121Z,92978.64
2024-02-10T11:08:03.229Z,92974.67
2024-02-10T11:10:39.305Z,92966.30
2024-02-10T11:13:09.009Z,92961.11
2024-02-10T11:15:42.146Z,92954.64
2024-02-10T11:18:21.237Z,92944.30
2024-02-10T11:20:49.130Z,92937.95
2024-02-10T11:23:22.288Z,92940.88
2024-02-10T11:25:53.966Z,92943.55
2024-02-10T11:28:23.301Z,92942.41
2024-02-10T11:30:51.688Z,92945.73
2024-02-10T11:33:24.650Z,92949.13
2024-02-10T11:35:56.403Z,92950.95
2024-02-10T11:38:27.456Z,92953.28
2024-02-10T11:40:55.437Z,92953.91
2024-02-10T11:43:23.752Z,92950.59
2024-02-10T11:45:51.479Z,92953.42
2024-02-10T11:48:19.344Z,92954.70
2024-02-10T11:53:18.840Z,92951.14
2024-02-10T11:55:49.384Z,92947.20
2024-02-10T11:58:19.478Z,92950.30
2024-02-10T12:00:47.562Z,92949.80
2024-02-10T12:03:22.210Z,92947.49
2024-02-10T12:05:50.394Z,92947.02
2024-02-10T12:08:18.610Z,92941.28
2024-02-10T12:10:46.459Z,92938.73
2024-02-10T12:13:21.143Z,92939.61
2024-02-10T12:15:49.032Z,92935.67
2024-02-10T12:18:18.656Z,92934.60
2024-02-10T12:20:52.513Z,92925.90
2024-02-10T12:23:20.397Z,92924.89
2024-02-10T12:25:48.173Z,92930.47
2024-02-10T12:28:16.018Z,92934.49
2024-02-10T12:30:43.726Z,92932.18
2024-02-10T12:33:12.230Z,92924.58
2024-02-10T12:35:41.274Z,92924.31
2024-02-10T12:38:09.234Z,92926.42
2024-02-10T12:40:37.926Z,92930.48
2024-02-10T12:43:05.891Z,92923.27
2024-02-10T12:45:39.066Z,92921.10
2024-02-10T12:48:10.022Z,92921.05
2024-02-10T12:50:37.949Z,92914.23
2024-02-10T12:53:05.792Z,92920.27
2024-02-10T12:55:33.580Z,92915.02
2024-02-10T12:58:02.295Z,92906.35
2024-02-10T13:00:30.221Z,92904.48
2024-02-10T13:02:58.334Z,92905.10
2024-02-10T13:05:29.149Z,92900.60
2024-02-10T13:07:57.175Z,92899.73
2024-02-10T13:10:29.893Z,92900.92
2024-02-10T13:12:59.791Z,92900.48
2024-02-10T13:15:27.816Z,92900.20
2024-02-10T13:17:58.916Z,92908.74
2024-02-10T13:20:28.434Z,92899.45
2024-02-10T13:22:59.800Z,92897.09
2024-02-10T13:25:29.113Z,92890.70
2024-02-10T13:27:57.317Z,92882.55
2024-02-10T13:30:25.531Z,92879.19
2024-02-10T13:32:59.525Z,92885.50
2024-02-10T13:35:29.541Z,92881.75
2024-02-10T13:38:16.204Z,92878.87
2024-02-10T13:41:02.543Z,92886.02
2024-02-10T13:43:49.525Z,92887.67
2024-02-10T13:46:35.892Z,92886.41
2024-02-10T13:49:22.227Z,92877.05
2024-02-10T13:52:08.952Z,92871.52
2024-02-10T13:54:57.036Z,92874.27
2024-02-10T13:57:44.329Z,92869.70
2024-02-10T14:00:31.729Z,92866.14
2024-02-10T14:03:03.176Z,92871.39
2024-02-10T14:05:51.801Z,92875.76
2024-02-10T14:08:39.107Z,92881.92
2024-02-10T14:11:21.783Z,92875.05
2024-02-10T14:13:55.067Z,92874.48
2024-02-10T14:16:35.225Z,92878.94
2024-02-10T14:19:14.086Z,92880.92
2024-02-10T14:21:44.573Z,92874.61
2024-02-10T14:24:16.917Z,92875.45
2024-02-10T14:27:02.787Z,92873.30
2024-02-10T14:29:35.171Z,92876.11
2024-02-10T14:32:11.336Z,92872.34
2024-02-10T14:35:00.657Z,92870.27
2024-02-10T14:37:32.293Z,92861.66
2024-02-10T14:40:01.206Z,92862.48
2024-02-10T14:42:29.710Z,92852.42
2024-02-10T14:44:57.536Z,92844.32
2024-02-10T14:47:26.104Z,92843.38
2024-02-10T14:49:54.413Z,92844.67
2024-02-10T14:52:23.848Z,92842.35
2024-02-10T14:54:52.096Z,92846.14
2024-02-10T14:57:22.940Z,92846.95
2024-02-10T14:59:52.413Z,92840.83
2024-02-10T15:02:23.785Z,92843.91
2024-02-10T15:04:52.431Z,92837.76
2024-02-10T15:07:23.433Z,92836.60
2024-02-10T15:09:52.546Z,92834.93
2024-02-10T15:12:20.345Z,92834.70
2024-02-10T15:14:48.244Z,92833.92
2024-02-10T15:17:17.998Z,92835.81
2024-02-10T15:19:46.636Z,92834.05
2024-02-10T15:22:16.591Z,92832.79
2024-02-10T15:24:44.832Z,92836.02
2024-02-10T15:27:16.855Z,92839.44
2024-02-10T15:29:44.719Z,92839.73
2024-02-10T15:32:12.798Z,92837.88
2024-02-10T15:34:48.473Z,92835.86
2024-02-10T15:37:26.075Z,92829.91
2024-02-10T15:39:53.934Z,92826.15
2024-02-10T15:42:21.915Z,92830.05
2024-02-10T15:44:51.701Z,92826.89
2024-02-10T15:47:19.766Z,92824.24
2024-02-10T15:49:50.941Z,92822.59
2024-02-10T15:52:20.723Z,92820.32
2024-02-10T15:54:48.717Z,92820.57
2024-02-10T15:57:16.549Z,92816.60
2024-02-10T15:59:44.369Z,92819.14
2024-02-10T16:02:12.697Z,92823.76
2024-02-10T16:04:43.617Z,92821.64
2024-02-10T16:07:12.140Z,92829.08
2024-02-10T16:09:39.958Z,92830.52
2024-02-10T16:12:10.133Z,92826.90
2024-02-10T16:14:38.732Z,92826.96
2024-02-10T16:17:07.096Z,92825.73
2024-02-10T16:19:41.092Z,92820.51
2024-02-10T16:22:09.424Z,92824.30
2024-02-10T16:24:41.297Z,92822.35
2024-02-10T16:27:09.121Z,92818.96
2024-02-10T16:29:36.962Z,92816.00
2024-02-10T16:32:05.341Z,92811.54
2024-02-10T16:34:39.535Z,92811.08
2024-02-10T16:37:11.765Z,92805.94
2024-02-10T16:39:39.688Z,92805.15
2024-02-10T16:42:07.453Z,92803.25
2024-02-10T16:44:35.368Z,92804.11
2024-02-10T16:47:05.781Z,92799.27
2024-02-10T16:49:34.400Z,92801.68
2024-02-10T16:52:05.040Z,92798.57
2024-02-10T16:54:33.365Z,92798.16
2024-02-10T16:57:01.767Z,92800.48
2024-02-10T16:59:29.928Z,92800.38
2024-02-10T17:01:57.791Z,92799.41
2024-02-10T17:04:25.700Z,92796.11
2024-02-10T17:06:55.875Z,92795.89
2024-02-10T17:09:24.089Z,92793.19
2024-02-10T17:11:51.843Z,92795.95
2024-02-10T17:14:19.620Z,92794.00
2024-02-10T17:16:47.415Z,92791.66
2024-02-10T17:19:20.013Z,92790.17
2024-02-10T17:21:52.408Z,92789.31
2024-02-10T17:24:21.581Z,92787.65
2024-02-10T17:26:49.506Z,92781.08
2024-02-10T17:29:17.852Z,92785.30
2024-02-10T17:31:47.648Z,92783.94
2024-02-10T17:34:15.782Z,92780.88
2024-02-10T17:36:43.641Z,92777.35
2024-02-10T17:39:11.817Z,92779.20
2024-02-10T17:41:44.494Z,92779.14
2024-02-10T17:44:15.135Z,92777.34
2024-02-10T17:46:52.334Z,92776.75
2024-02-10T17:49:21.576Z,92775.84
2024-02-10T17:51:49.586Z,92772.92
2024-02-10T17:54:20.665Z,92769.83
2024-02-10T17:56:49.319Z,92771.16
2024-02-10T17:59:19.735Z,92764.78
2024-02-10T18:01:48.051Z,92763.16
2024-02-10T18:04:16.453Z,92758.40
2024-02-10T18:06:45.408Z,92758.71
2024-02-10T18:09:14.515Z,92753.27
2024-02-10T18:11:46.027Z,92755.38
2024-02-10T18:14:16.671Z,92757.94
2024-02-10T18:16:46.294Z,92756.87
2024-02-10T18:19:14.297Z,92748.33
2024-02-10T18:21:42.387Z,92744.69
2024-02-10T18:24:10.420Z,92742.70
2024-02-10T18:26:40.827Z,92731.83
2024-02-10T18:29:08.658Z,92724.71
2024-02-10T18:31:36.690Z,92721.65
2024-02-10T18:34:04.555Z,92712.92
2024-02-10T18:36:32.397Z,92711.30
2024-02-10T18:39:00.602Z,92709.52
2024-02-10T18:41:28.533Z,92708.74
2024-02-10T18:44:03.251Z,92706.40
2024-02-10T18:46:32.513Z,92702.60
2024-02-10T18:49:01.152Z,92694.75
2024-02-10T18:51:29.582Z,92691.90
2024-02-10T18:53:58.209Z,92691.34
2024-02-10T18:56:26.443Z,92689.40
2024-02-10T18:58:56.089Z,92686.59
2024-02-10T19:01:27.294Z,92685.58
2024-02-10T19:03:55.871Z,92689.06
2024-02-10T19:06:24.227Z,92686.27
2024-02-10T19:08:53.553Z,92678.36
2024-02-10T19:11:21.512Z,92676.27
2024-02-10T19:13:49.670Z,92674.95
2024-02-10T19:16:17.517Z,92671.15
2024-02-10T19:18:47.495Z,92673.23
2024-02-10T19:21:16.338Z,92672.95
2024-02-10T19:23:48.124Z,92664.58
2024-02-10T19:26:18.016Z,92666.39
2024-02-10T19:28:47.162Z,92660.27
2024-02-10T19:31:15.856Z,92664.54
2024-02-10T19:33:44.014Z,92666.94
2024-02-10T19:36:12.313Z,92666.18
2024-02-10T19:38:40.876Z,92665.83
2024-02-10T19:41:09.460Z,92661.22
2024-02-10T19:43:37.438Z,92660.96
2024-02-10T19:46:06.287Z,92655.85
2024-02-10T19:48:34.457Z,92652.42
2024-02-10T19:51:04.379Z,92655.11
2024-02-10T19:53:32.357Z,92656.60
2024-02-10T19:56:00.146Z,92651.21
2024-02-10T19:58:29.653Z,92648.96
2024-02-10T20:01:01.144Z,92650.19
2024-02-10T20:03:29.174Z,92644.50
2024-02-10T20:05:58.388Z,92646.97
2024-02-10T20:08:26.547Z,92645.12
2024-02-10T20:10:55.510Z,92647.90
2024-02-10T20:13:23.573Z,92645.50
2024-02-10T20:15:51.570Z,92636.62
2024-02-10T20:18:20.510Z,92643.91
2024-02-10T20:20:48.432Z,92645.25
2024-02-10T20:23:18.043Z,92644.02
2024-02-10T20:25:45.970Z,92649.93
2024-02-10T20:28:14.018Z,92650.18
2024-02-10T20:30:44.425Z,92658.35
2024-02-10T20:33:13.059Z,92653.88
2024-02-10T20:35:43.939Z,92648.95
2024-02-10T20:38:12.023Z,92650.59
2024-02-10T20:40:39.857Z,92645.30
2024-02-10T20:43:07.849Z,92646.28
2024-02-10T20:45:38.700Z,92645.20
2024-02-10T20:48:07.999Z,92645.66
2024-02-10T20:50:36.260Z,92646.33
2024-02-10T20:53:04.360Z,92651.25
2024-02-10T20:55:32.203Z,92648.23
2024-02-10T20:57:59.931Z,92650.40
2024-02-10T21:00:28.808Z,92651.16
2024-02-10T21:02:57.735Z,92652.59
2024-02-10T21:05:26.011Z,92649.61
2024-02-10T21:07:53.767Z,92648.74
2024-02-10T21:10:21.918Z,92651.41
2024-02-10T21:12:50.829Z,92651.31
2024-02-10T21:15:18.894Z,92651.11
2024-02-10T21:17:47.762Z,92650.14
2024-02-10T21:20:16.904Z,92651.58
2024-02-10T21:22:48.633Z,92649.41
2024-02-10T21:25:16.973Z,92652.66
2024-02-10T21:27:44.788Z,92648.47
2024-02-10T21:30:14.477Z,92647.08
2024-02-10T21:32:44.257Z,92645.84
2024-02-10T21:35:12.585Z,92645.73
2024-02-10T21:37:41.493Z,92642.98
2024-02-10T21:40:09.763Z,92641.17
2024-02-10T21:42:37.782Z,92637.98
2024-02-10T21:45:06.435Z,92640.19
2024-02-10T21:47:37.567Z,92637.69
2024-02-10T21:50:06.212Z,92634.38
2024-02-10T21:52:34.220Z,92637.27
2024-02-10T21:55:02.013Z,92631.97
2024-02-10T21:57:37.020Z,92629.20
2024-02-10T22:00:12.081Z,92629.71
2024-02-10T22:02:40.270Z,92628.32
2024-02-10T22:05:08.654Z,92628.52
2024-02-10T22:07:40.219Z,92623.17
2024-02-10T22:10:13.420Z,92620.23
2024-02-10T22:12:47.436Z,92618.77
2024-02-10T22:15:21.424Z,92618.20
2024-02-10T22:17:49.877Z,92619.63
2024-02-10T22:20:19.369Z,92619.02
2024-02-10T22:22:48.566Z,92614.44
2024-02-10T22:25:18.132Z,92613.20
2024-02-10T22:27:46.075Z,92612.71
2024-02-10T22:30:20.255Z,92613.80
2024-02-10T22:32:49.982Z,92617.13
2024-02-10T22:35:20.258Z,92611.84
2024-02-10T22:37:49.697Z,92612.95
2024-02-10T22:40:23.495Z,92607.87
2024-02-10T22:42:51.388Z,92610.33
2024-02-10T22:45:20.303Z,92609.35
2024-02-10T22:47:48.797Z,92607.54
2024-02-10T22:50:19.861Z,92606.54
2024-02-10T22:52:47.701Z,92604.44
2024-02-10T22:55:18.510Z,92595.85
2024-02-10T22:57:47.091Z,92593.75
2024-02-10T23:00:30.102Z,92591.92
2024-02-10T23:02:58.034Z,92588.16
2024-02-10T23:05:26.141Z,92586.36
2024-02-10T23:07:55.023Z,92584.71
2024-02-10T23:10:22.811Z,92586.50
2024-02-10T23:12:51.126Z,92584.09
2024-02-10T23:15:23.596Z,92584.34
2024-02-10T23:17:52.260Z,92581.23
2024-02-10T23:20:20.465Z,92580.34
2024-02-10T23:22:48.153Z,92580.86
2024-02-10T23:25:16.326Z,92578.84
2024-02-10T23:27:44.823Z,92579.45
2024-02-10T23:30:12.787Z,92578.69
2024-02-10T23:32:40.822Z,92573.09
2024-02-10T23:35:10.507Z,92573.73
2024-02-10T23:37:38.522Z,92572.55
2024-02-10T23:40:15.089Z,92574.61
2024-02-10T23:42:43.820Z,92571.91
2024-02-10T23:45:11.698Z,92571.60
2024-02-10T23:47:43.911Z,92571.84
2024-02-10T23:50:15.546Z,92567.33
2024-02-10T23:52:43.774Z,92566.70
2024-02-10T23:55:14.341Z,92566.65
2024-02-10T23:57:42.372Z,92563.27
